Time;durP1;ratioP1;P1;durP2;ratioP2;P2;SDS_P1;SDS_P2;PMS_P1;PMS_P2;Temp;Humidity;BMP_temperature;BMP_pressure;BME280_temperature;BME280_humidity;BME280_pressure;Samples;Min_cycle;Max_cycle;Signal;HPM_P1;HPM_P2
2020/12/15 00:00:24;;;;;;;2.63;2.30;;;;;;;9.78;100.00;99539.56;5078522;28;20200;-32
2020/12/15 00:03:11;;;;;;;3.27;2.97;;;;;;;9.83;100.00;99537.75;5078559;28;20203;-33
2020/12/15 00:05:57;;;;;;;4.07;3.43;;;;;;;9.87;100.00;99546.31;5080187;28;20540;-33
2020/12/15 00:08:52;;;;;;;2.00;1.90;;;;;;;9.89;100.00;99536.78;5093232;28;20266;-36
2020/12/15 00:11:37;;;;;;;2.80;2.43;;;;;;;10.03;100.00;99552.88;5078277;28;20192;-34
2020/12/15 00:14:23;;;;;;;2.30;2.10;;;;;;;9.89;100.00;99537.66;5078490;28;20199;-35
2020/12/15 00:17:09;;;;;;;3.33;2.80;;;;;;;9.78;100.00;99518.06;5078143;28;20598;-33
2020/12/15 00:19:55;;;;;;;4.07;3.17;;;;;;;9.86;100.00;99518.75;5078232;28;20642;-33
2020/12/15 00:22:41;;;;;;;2.37;2.17;;;;;;;9.76;100.00;99538.75;5077587;28;20385;-32
2020/12/15 00:25:31;;;;;;;1.90;1.80;;;;;;;10.02;100.00;99546.03;5078038;28;20342;-34
2020/12/15 00:28:17;;;;;;;2.23;1.97;;;;;;;9.90;100.00;99528.16;5078294;28;20582;-39
2020/12/15 00:31:06;;;;;;;3.47;3.17;;;;;;;9.95;100.00;99531.53;5078100;28;20192;-32
2020/12/15 00:33:52;;;;;;;6.90;5.97;;;;;;;9.91;100.00;99528.13;5078004;28;20349;-34
2020/12/15 00:36:38;;;;;;;9.10;6.30;;;;;;;9.84;100.00;99521.38;5078049;28;20368;-34
2020/12/15 00:39:23;;;;;;;8.57;6.10;;;;;;;9.80;100.00;99521.44;5077904;28;20196;-37
2020/12/15 00:42:11;;;;;;;8.03;6.10;;;;;;;9.90;100.00;99517.84;5077431;28;20303;-34
2020/12/15 00:44:58;;;;;;;4.53;4.10;;;;;;;9.82;100.00;99515.38;5077875;28;20553;-36
2020/12/15 00:47:44;;;;;;;7.00;5.50;;;;;;;9.77;100.00;99508.59;5077624;28;20610;-35
2020/12/15 00:50:29;;;;;;;6.20;5.03;;;;;;;9.83;100.00;99509.34;5077767;28;20636;-35
2020/12/15 00:53:16;;;;;;;8.03;4.70;;;;;;;9.85;100.00;99505.00;5077873;28;20199;-34
2020/12/15 00:56:05;;;;;;;4.83;3.80;;;;;;;9.87;100.00;99498.06;5077534;28;20200;-32
2020/12/15 00:58:50;;;;;;;4.23;3.30;;;;;;;9.78;100.00;99493.09;5077333;28;20203;-36
2020/12/15 01:01:36;;;;;;;3.97;3.53;;;;;;;9.92;100.00;99503.16;5077087;28;20229;-37
2020/12/15 01:04:22;;;;;;;3.00;2.80;;;;;;;9.99;100.00;99497.81;5077017;28;20652;-36
2020/12/15 01:07:08;;;;;;;2.77;2.57;;;;;;;10.00;100.00;99498.69;5077168;28;20447;-33
2020/12/15 01:09:54;;;;;;;2.70;2.50;;;;;;;10.05;100.00;99502.03;5077214;28;20204;-38
2020/12/15 01:12:40;;;;;;;3.50;2.97;;;;;;;10.08;100.00;99495.97;5077093;28;20273;-36
2020/12/15 01:15:25;;;;;;;4.60;2.40;;;;;;;10.29;100.00;99496.44;5077166;28;20200;-36
2020/12/15 01:18:11;;;;;;;3.07;2.73;;;;;;;10.52;100.00;99488.22;5077379;28;20290;-34
2020/12/15 01:20:58;;;;;;;2.80;2.50;;;;;;;10.67;100.00;99500.81;5077289;28;20239;-37
2020/12/15 01:23:44;;;;;;;2.30;2.17;;;;;;;10.46;100.00;99501.25;5077141;28;20200;-39
2020/12/15 01:26:30;;;;;;;2.47;2.20;;;;;;;10.16;100.00;99496.69;5077347;28;20603;-37
2020/12/15 01:29:16;;;;;;;1.83;1.73;;;;;;;10.56;100.00;99502.78;5076972;28;20325;-36
2020/12/15 01:32:02;;;;;;;2.00;1.90;;;;;;;10.19;100.00;99504.41;5077067;28;20207;-35
2020/12/15 01:34:48;;;;;;;2.03;1.93;;;;;;;10.22;100.00;99505.19;5076607;28;20277;-37
2020/12/15 01:37:35;;;;;;;2.10;1.90;;;;;;;10.12;100.00;99513.13;5076811;28;20240;-34
2020/12/15 01:40:20;;;;;;;2.33;2.13;;;;;;;9.95;100.00;99498.78;5076636;28;20203;-39
2020/12/15 01:43:07;;;;;;;3.43;2.40;;;;;;;10.15;100.00;99508.75;5077162;28;20211;-37
2020/12/15 01:45:52;;;;;;;3.60;1.87;;;;;;;10.26;100.00;99509.41;5076775;28;20204;-35
2020/12/15 01:48:38;;;;;;;2.13;2.00;;;;;;;10.20;100.00;99512.09;5077161;28;20601;-35
2020/12/15 01:51:25;;;;;;;2.73;1.90;;;;;;;10.35;100.00;99510.97;5076535;28;20197;-36
2020/12/15 01:54:11;;;;;;;1.80;1.70;;;;;;;10.29;100.00;99500.75;5076886;28;20238;-34
2020/12/15 01:56:57;;;;;;;1.80;1.63;;;;;;;10.28;100.00;99506.81;5078196;28;20250;-38
2020/12/15 01:59:45;;;;;;;1.80;1.70;;;;;;;10.35;100.00;99513.56;5076615;28;20310;-38
2020/12/15 02:02:31;;;;;;;1.97;1.87;;;;;;;10.28;100.00;99506.81;5076469;28;20223;-39
2020/12/15 02:05:16;;;;;;;1.60;1.50;;;;;;;10.47;100.00;99502.97;5076946;28;20200;-38
2020/12/15 02:08:02;;;;;;;1.70;1.60;;;;;;;10.60;100.00;99506.97;5076625;28;20203;-38
2020/12/15 02:10:48;;;;;;;3.10;2.00;;;;;;;10.33;100.00;99500.66;5077063;28;20541;-36
2020/12/15 02:13:34;;;;;;;2.00;1.77;;;;;;;10.55;100.00;99501.06;5076617;28;20296;-37
2020/12/15 02:16:21;;;;;;;1.70;1.60;;;;;;;10.40;100.00;99506.53;5080680;28;20227;-37
2020/12/15 02:19:07;;;;;;;2.27;1.90;;;;;;;10.56;100.00;99510.53;5080282;28;20216;-36
2020/12/15 02:21:55;;;;;;;1.90;1.80;;;;;;;10.60;100.00;99513.88;5080463;28;20235;-32
2020/12/15 02:24:41;;;;;;;1.70;1.60;;;;;;;10.48;100.00;99503.81;5080167;28;20199;-37
2020/12/15 02:27:27;;;;;;;2.00;1.87;;;;;;;10.37;100.00;99509.22;5080046;28;20195;-35
2020/12/15 02:30:13;;;;;;;1.60;1.50;;;;;;;10.30;100.00;99511.06;5080171;28;20358;-35
2020/12/15 02:32:58;;;;;;;3.77;1.90;;;;;;;10.41;100.00;99510.84;5080565;28;20215;-33
2020/12/15 02:35:44;;;;;;;1.90;1.80;;;;;;;10.16;100.00;99509.59;5080128;28;20346;-36
2020/12/15 02:38:31;;;;;;;1.70;1.60;;;;;;;10.03;100.00;99508.97;5080199;28;20253;-35
2020/12/15 02:41:17;;;;;;;2.20;2.10;;;;;;;10.16;100.00;99507.03;5079749;28;20220;-34
2020/12/15 02:44:04;;;;;;;2.20;1.60;;;;;;;10.19;100.00;99509.59;5079765;28;20338;-35
2020/12/15 02:46:50;;;;;;;2.00;1.90;;;;;;;10.06;100.00;99510.66;5079532;28;20255;-37
2020/12/15 02:49:36;;;;;;;2.17;2.03;;;;;;;9.96;100.00;99512.56;5079204;28;20200;-35
2020/12/15 02:52:23;;;;;;;2.63;2.40;;;;;;;9.91;100.00;99511.78;5079488;28;20193;-36
2020/12/15 02:55:09;;;;;;;2.17;2.07;;;;;;;9.91;100.00;99510.06;5079151;28;20196;-34
2020/12/15 02:57:55;;;;;;;2.33;2.13;;;;;;;10.08;100.00;99509.75;5078898;28;20718;-36
2020/12/15 03:00:40;;;;;;;2.93;2.20;;;;;;;9.93;100.00;99510.88;5079415;28;20272;-35
2020/12/15 03:03:26;;;;;;;2.30;2.10;;;;;;;9.92;100.00;99519.50;5079612;28;20601;-34
2020/12/15 03:06:14;;;;;;;2.40;2.20;;;;;;;10.14;100.00;99526.88;5080029;28;20495;-34
2020/12/15 03:09:00;;;;;;;2.70;2.23;;;;;;;9.89;100.00;99516.97;5079576;28;20358;-38
2020/12/15 03:11:46;;;;;;;3.60;2.20;;;;;;;10.05;100.00;99521.84;5079538;28;20610;-34
2020/12/15 03:14:31;;;;;;;2.97;2.40;;;;;;;9.68;100.00;99519.94;5079551;28;20200;-35
2020/12/15 03:17:17;;;;;;;2.60;2.40;;;;;;;9.78;100.00;99511.16;5079643;28;20200;-34
2020/12/15 03:20:03;;;;;;;2.60;2.40;;;;;;;9.76;100.00;99517.22;5079405;28;20254;-33
2020/12/15 03:22:49;;;;;;;2.90;2.70;;;;;;;9.63;100.00;99514.00;5079451;28;20560;-35
2020/12/15 03:25:36;;;;;;;2.70;2.50;;;;;;;9.78;100.00;99515.47;5078719;28;20204;-36
2020/12/15 03:28:26;;;;;;;3.50;3.20;;;;;;;9.66;100.00;99513.94;5078951;28;20578;-34
2020/12/15 03:31:12;;;;;;;3.03;2.83;;;;;;;9.44;100.00;99510.00;5078959;28;20231;-37
2020/12/15 03:33:58;;;;;;;2.70;2.50;;;;;;;9.37;100.00;99511.00;5078694;28;20196;-35
2020/12/15 03:36:44;;;;;;;3.63;2.80;;;;;;;9.53;100.00;99512.47;5078951;28;20200;-35
2020/12/15 03:39:29;;;;;;;3.60;3.00;;;;;;;9.39;100.00;99509.25;5079077;28;20204;-34
2020/12/15 03:42:15;;;;;;;3.30;3.00;;;;;;;9.35;100.00;99521.34;5079125;28;20227;-32
2020/12/15 03:45:02;;;;;;;3.57;3.03;;;;;;;9.38;100.00;99510.13;5078512;28;20195;-37
2020/12/15 03:47:48;;;;;;;7.17;3.47;;;;;;;9.44;100.00;99515.19;5078443;28;20195;-34
2020/12/15 03:50:33;;;;;;;3.30;3.03;;;;;;;9.26;100.00;99526.66;5078929;28;20277;-32
2020/12/15 03:53:19;;;;;;;3.80;3.50;;;;;;;9.38;100.00;99521.31;5078972;28;20192;-33
2020/12/15 03:56:06;;;;;;;3.67;3.30;;;;;;;9.27;100.00;99525.78;5078126;28;20204;-35
2020/12/15 03:58:51;;;;;;;3.73;3.43;;;;;;;9.43;100.00;99523.81;5077524;28;20200;-33
2020/12/15 04:01:38;;;;;;;3.77;3.33;;;;;;;9.25;100.00;99524.94;5078397;28;20235;-33
2020/12/15 04:04:24;;;;;;;4.03;3.43;;;;;;;9.24;100.00;99526.66;5078617;28;20200;-33
2020/12/15 04:07:10;;;;;;;3.77;3.47;;;;;;;9.25;100.00;99530.09;5078091;28;20199;-34
2020/12/15 04:09:56;;;;;;;4.47;3.77;;;;;;;9.39;100.00;99532.50;5078172;28;20198;-33
2020/12/15 04:12:42;;;;;;;4.20;3.80;;;;;;;9.13;100.00;99538.03;5077833;28;20314;-33
2020/12/15 04:15:28;;;;;;;5.40;3.50;;;;;;;9.46;100.00;99540.09;5077826;28;20253;-33
2020/12/15 04:18:14;;;;;;;3.83;3.43;;;;;;;9.39;100.00;99537.66;5078091;28;20219;-34
2020/12/15 04:21:00;;;;;;;3.93;3.60;;;;;;;9.17;100.00;99543.16;5078199;28;20196;-32
2020/12/15 04:23:49;;;;;;;3.83;3.53;;;;;;;9.32;100.00;99540.31;5078130;28;20243;-34
2020/12/15 04:26:34;;;;;;;4.93;4.20;;;;;;;9.32;100.00;99535.16;5077665;28;20199;-36
2020/12/15 04:29:21;;;;;;;4.23;3.80;;;;;;;9.39;100.00;99538.50;5078130;28;20200;-32
2020/12/15 04:32:07;;;;;;;4.57;4.10;;;;;;;9.20;100.00;99531.91;5078037;28;20234;-35
2020/12/15 04:34:53;;;;;;;6.97;4.30;;;;;;;9.08;100.00;99538.09;5076954;28;20195;-32
2020/12/15 04:37:39;;;;;;;4.23;3.83;;;;;;;9.27;100.00;99526.63;5076975;28;20235;-32
2020/12/15 04:40:25;;;;;;;4.77;4.33;;;;;;;9.08;100.00;99526.94;5077733;28;20242;-33
2020/12/15 04:43:21;;;;;;;5.70;4.80;;;;;;;9.27;100.00;99524.03;5077336;28;20330;-34
2020/12/15 04:46:11;;;;;;;5.23;4.53;;;;;;;9.19;100.00;99530.22;5077770;28;20333;-32
2020/12/15 04:49:04;;;;;;;6.53;4.63;;;;;;;9.16;100.00;99531.13;5077415;28;20502;-34
2020/12/15 04:52:04;;;;;;;4.47;4.07;;;;;;;9.07;100.00;99531.22;5077539;28;20628;-32
2020/12/15 04:54:51;;;;;;;7.63;4.57;;;;;;;9.26;100.00;99542.97;5077130;28;20480;-33
2020/12/15 04:57:39;;;;;;;6.70;5.10;;;;;;;9.49;100.00;99534.03;5077429;28;20231;-33
2020/12/15 05:00:24;;;;;;;6.37;5.33;;;;;;;9.09;100.00;99544.97;5077817;28;20203;-32
2020/12/15 05:03:13;;;;;;;5.80;5.20;;;;;;;9.22;100.00;99540.47;5077181;28;20238;-34
2020/12/15 05:06:06;;;;;;;6.17;4.80;;;;;;;9.26;100.00;99549.88;5077520;28;20612;-34
2020/12/15 05:08:53;;;;;;;5.40;4.90;;;;;;;9.23;100.00;99543.03;5077134;28;20203;-35
2020/12/15 05:11:40;;;;;;;6.00;5.20;;;;;;;9.20;100.00;99544.78;5077599;28;20345;-34
2020/12/15 05:14:26;;;;;;;5.70;5.20;;;;;;;9.13;100.00;99549.22;5077401;28;20200;-35
2020/12/15 05:17:22;;;;;;;5.90;5.23;;;;;;;9.18;100.00;99544.00;5077314;28;20287;-34
2020/12/15 05:20:09;;;;;;;6.17;4.97;;;;;;;9.22;100.00;99548.22;5077084;28;20347;-37
2020/12/15 05:22:55;;;;;;;6.20;5.67;;;;;;;9.15;100.00;99547.47;5077317;28;20224;-34
2020/12/15 05:25:41;;;;;;;7.20;6.07;;;;;;;9.27;100.00;99552.44;5077270;28;20330;-34
2020/12/15 05:28:27;;;;;;;7.93;5.90;;;;;;;9.16;100.00;99554.34;5077561;28;20584;-33
2020/12/15 05:31:14;;;;;;;5.87;5.33;;;;;;;9.07;100.00;99551.88;5077088;28;20199;-32
2020/12/15 05:34:02;;;;;;;5.73;5.13;;;;;;;9.24;100.00;99549.91;5076514;28;20191;-34
2020/12/15 05:36:53;;;;;;;8.10;5.60;;;;;;;9.17;100.00;99556.03;5077237;28;20662;-37
2020/12/15 05:39:39;;;;;;;7.77;5.80;;;;;;;9.11;100.00;99547.53;5076617;28;20193;-32
2020/12/15 05:42:28;;;;;;;6.37;5.67;;;;;;;9.48;100.00;99552.97;5076693;28;20514;-34
2020/12/15 05:45:19;;;;;;;7.37;5.73;;;;;;;9.41;100.00;99553.94;5076513;28;20200;-36
2020/12/15 05:48:06;;;;;;;7.17;6.00;;;;;;;9.26;100.00;99555.03;5076222;28;20196;-38
2020/12/15 05:50:57;;;;;;;9.40;6.33;;;;;;;9.52;100.00;99557.22;5079611;28;20515;-37
2020/12/15 05:53:43;;;;;;;7.87;6.10;;;;;;;9.36;100.00;99560.94;5082642;28;20215;-35
2020/12/15 05:56:28;;;;;;;9.87;6.97;;;;;;;9.41;100.00;99559.09;5081221;28;20207;-34
2020/12/15 05:59:19;;;;;;;8.57;5.97;;;;;;;9.64;100.00;99554.44;5080865;28;20763;-34
2020/12/15 06:02:07;;;;;;;7.00;6.20;;;;;;;9.64;100.00;99565.63;5079675;28;20227;-36
2020/12/15 06:04:53;;;;;;;6.77;6.10;;;;;;;9.71;100.00;99566.38;5080444;28;20199;-37
2020/12/15 06:07:38;;;;;;;6.63;6.00;;;;;;;9.73;100.00;99563.78;5091181;28;20208;-34
2020/12/15 06:10:29;;;;;;;8.90;6.73;;;;;;;9.76;100.00;99559.41;5080576;28;20223;-37
2020/12/15 06:13:17;;;;;;;7.23;6.40;;;;;;;9.77;100.00;99565.44;5080666;28;20200;-34
2020/12/15 06:16:03;;;;;;;6.57;5.87;;;;;;;9.75;100.00;99564.59;5080858;28;20204;-33
2020/12/15 06:18:49;;;;;;;7.93;6.50;;;;;;;9.64;100.00;99557.00;5080286;28;20208;-33
2020/12/15 06:21:36;;;;;;;8.13;6.13;;;;;;;9.67;100.00;99562.13;5079668;28;20200;-36
2020/12/15 06:24:27;;;;;;;6.50;5.87;;;;;;;10.06;100.00;99560.59;5080203;28;20200;-34
2020/12/15 06:27:13;;;;;;;9.33;6.80;;;;;;;9.78;100.00;99562.81;5079725;28;20204;-35
2020/12/15 06:29:59;;;;;;;11.17;8.70;;;;;;;9.92;100.00;99553.09;5078774;28;20341;-34
2020/12/15 06:33:00;;;;;;;8.40;7.57;;;;;;;9.52;100.00;99559.81;5079248;28;20286;-34
2020/12/15 06:35:48;;;;;;;7.00;6.40;;;;;;;9.57;100.00;99558.00;5079753;28;20269;-34
2020/12/15 06:38:37;;;;;;;7.10;6.33;;;;;;;9.54;100.00;99547.72;5078974;28;20243;-34
2020/12/15 06:41:25;;;;;;;7.30;6.50;;;;;;;9.66;100.00;99550.09;5079195;28;20195;-34
2020/12/15 06:44:31;;;;;;;8.03;6.90;;;;;;;9.67;100.00;99552.66;5079425;28;20219;-35
2020/12/15 06:47:25;;;;;;;8.00;6.63;;;;;;;9.81;100.00;99546.41;5079531;28;20209;-36
2020/12/15 06:50:13;;;;;;;8.00;6.90;;;;;;;9.90;100.00;99556.59;5079177;28;20292;-34
2020/12/15 06:53:07;;;;;;;7.23;6.43;;;;;;;9.77;100.00;99558.53;5078618;28;20195;-37
2020/12/15 06:56:00;;;;;;;8.67;7.37;;;;;;;9.68;100.00;99556.09;5078587;28;20235;-34
2020/12/15 06:59:02;;;;;;;7.83;7.07;;;;;;;9.54;100.00;99565.81;5078755;28;20200;-34
2020/12/15 07:01:50;;;;;;;7.87;7.17;;;;;;;9.62;100.00;99561.34;5082089;28;20215;-36
2020/12/15 07:04:46;;;;;;;12.27;7.30;;;;;;;9.54;100.00;99560.63;5096260;28;20195;-36
2020/12/15 07:07:46;;;;;;;10.53;7.50;;;;;;;9.66;100.00;99565.59;5098614;28;20201;-35
2020/12/15 07:10:33;;;;;;;8.10;6.57;;;;;;;9.34;100.00;99563.53;5098599;28;20210;-35
2020/12/15 07:13:19;;;;;;;8.00;7.20;;;;;;;9.30;100.00;99556.72;5098818;28;20257;-33
2020/12/15 07:16:04;;;;;;;8.33;7.47;;;;;;;9.39;100.00;99566.06;5099406;28;20228;-33
2020/12/15 07:18:51;;;;;;;8.83;7.93;;;;;;;9.38;100.00;99572.09;5098804;28;20198;-33
2020/12/15 07:21:36;;;;;;;8.47;7.30;;;;;;;9.48;100.00;99576.22;5098712;28;20257;-35
2020/12/15 07:24:23;;;;;;;7.37;6.53;;;;;;;9.53;100.00;99571.84;5098830;28;20345;-35
2020/12/15 07:27:09;;;;;;;7.90;6.90;;;;;;;9.66;100.00;99574.19;5098679;28;20198;-32
2020/12/15 07:29:55;;;;;;;7.70;6.90;;;;;;;9.94;100.00;99581.50;5099252;28;20192;-37
2020/12/15 07:32:43;;;;;;;7.47;6.77;;;;;;;9.84;100.00;99574.75;5099585;28;20192;-35
2020/12/15 07:35:34;;;;;;;9.27;7.10;;;;;;;9.63;100.00;99589.72;5099143;28;20191;-33
2020/12/15 07:38:22;;;;;;;8.87;6.43;;;;;;;9.69;100.00;99581.03;5098605;28;20411;-35
2020/12/15 07:41:14;;;;;;;10.40;7.37;;;;;;;10.15;100.00;99578.53;5098775;28;20199;-36
2020/12/15 07:44:08;;;;;;;9.00;6.90;;;;;;;9.66;100.00;99588.84;5098399;28;20231;-36
2020/12/15 07:46:53;;;;;;;10.50;8.37;;;;;;;9.49;100.00;99581.34;5099098;28;20254;-35
2020/12/15 07:49:39;;;;;;;10.80;8.70;;;;;;;10.18;100.00;99587.97;5098624;28;20199;-34
2020/12/15 07:52:29;;;;;;;10.30;7.27;;;;;;;9.83;100.00;99596.31;5098443;28;20283;-34
2020/12/15 07:55:16;;;;;;;10.00;6.57;;;;;;;9.85;100.00;99584.22;5097827;28;20261;-35
2020/12/15 07:58:15;;;;;;;9.63;6.57;;;;;;;9.84;100.00;99601.44;5098500;28;20198;-35
2020/12/15 08:01:03;;;;;;;7.60;6.93;;;;;;;9.85;100.00;99595.41;5098434;28;20663;-38
2020/12/15 08:04:04;;;;;;;8.57;7.03;;;;;;;9.96;100.00;99592.66;5097622;28;20227;-36
2020/12/15 08:06:50;;;;;;;8.03;6.97;;;;;;;9.91;100.00;99592.72;5097600;28;20492;-36
2020/12/15 08:09:36;;;;;;;11.53;6.60;;;;;;;10.32;100.00;99598.94;5077869;28;20262;-37
2020/12/15 08:12:24;;;;;;;9.13;6.80;;;;;;;10.03;100.00;99596.81;5078279;28;20201;-37
2020/12/15 08:15:19;;;;;;;8.70;6.70;;;;;;;10.50;100.00;99590.81;5077668;28;20621;-34
2020/12/15 08:18:09;;;;;;;9.73;6.93;;;;;;;10.75;100.00;99601.53;5077470;28;20196;-34
2020/12/15 08:21:02;;;;;;;7.13;6.07;;;;;;;10.22;100.00;99602.53;5077144;28;20243;-39
2020/12/15 08:24:05;;;;;;;7.90;7.10;;;;;;;10.20;100.00;99601.72;5077358;28;20247;-37
2020/12/15 08:26:50;;;;;;;6.80;6.20;;;;;;;10.29;100.00;99604.16;5078392;28;20502;-37
2020/12/15 08:29:37;;;;;;;19.83;18.03;;;;;;;10.54;100.00;99607.13;5077634;28;20205;-37
2020/12/15 08:32:28;;;;;;;14.50;13.10;;;;;;;10.32;100.00;99611.84;5078386;28;20265;-36
2020/12/15 08:35:14;;;;;;;13.20;11.87;;;;;;;10.00;100.00;99612.38;5078206;28;20656;-35
2020/12/15 08:38:03;;;;;;;9.17;8.33;;;;;;;10.17;100.00;99617.28;5076684;28;20241;-34
2020/12/15 08:40:55;;;;;;;7.50;6.80;;;;;;;10.10;100.00;99620.84;5080405;28;20202;-34
2020/12/15 08:43:41;;;;;;;7.40;6.80;;;;;;;10.22;100.00;99618.06;5097032;28;20300;-35
2020/12/15 08:46:35;;;;;;;7.00;6.40;;;;;;;10.06;100.00;99614.00;5087830;28;20262;-36
2020/12/15 08:49:26;;;;;;;7.00;6.37;;;;;;;9.99;100.00;99614.09;5076524;28;20208;-35
2020/12/15 08:52:21;;;;;;;7.63;6.83;;;;;;;10.05;100.00;99614.88;5076314;28;20196;-39
2020/12/15 08:55:07;;;;;;;7.30;6.57;;;;;;;9.95;100.00;99627.97;5076352;28;20284;-37
2020/12/15 08:58:00;;;;;;;9.77;7.03;;;;;;;10.10;100.00;99624.28;5085203;28;20227;-33
2020/12/15 09:00:49;;;;;;;7.43;6.83;;;;;;;10.03;100.00;99623.50;5096811;28;20200;-35
2020/12/15 09:03:44;;;;;;;8.23;7.43;;;;;;;10.18;100.00;99629.31;5096333;28;20223;-34
2020/12/15 09:06:32;;;;;;;8.97;6.83;;;;;;;9.97;100.00;99636.56;5096932;28;20191;-37
2020/12/15 09:09:26;;;;;;;7.63;6.83;;;;;;;10.11;100.00;99628.56;5097187;28;20291;-38
2020/12/15 09:12:12;;;;;;;8.00;6.77;;;;;;;9.96;100.00;99629.69;5096875;28;20274;-33
2020/12/15 09:15:03;;;;;;;12.57;9.80;;;;;;;10.17;100.00;99628.47;5096450;28;20198;-36
2020/12/15 09:17:50;;;;;;;31.07;20.53;;;;;;;10.08;100.00;99631.19;5085598;28;20204;-38
2020/12/15 09:20:38;;;;;;;10.33;8.10;;;;;;;9.85;100.00;99633.31;5093552;28;20200;-35
2020/12/15 09:23:26;;;;;;;9.00;8.13;;;;;;;9.86;100.00;99638.44;5076081;28;20262;-38
2020/12/15 09:26:12;;;;;;;7.03;6.33;;;;;;;10.03;100.00;99641.59;5075876;28;20290;-36
2020/12/15 09:29:09;;;;;;;11.33;7.10;;;;;;;10.01;100.00;99645.94;5077050;28;20627;-36
2020/12/15 09:31:56;;;;;;;8.83;6.67;;;;;;;10.19;100.00;99641.41;5076885;28;20528;-34
2020/12/15 09:34:45;;;;;;;9.13;7.20;;;;;;;10.00;100.00;99649.41;5075865;28;20337;-36
2020/12/15 09:37:33;;;;;;;8.67;7.43;;;;;;;10.28;100.00;99651.56;5075224;28;20240;-36
2020/12/15 09:40:22;;;;;;;10.37;6.97;;;;;;;9.98;100.00;99663.25;5075563;28;20195;-34
2020/12/15 09:43:08;;;;;;;8.63;7.07;;;;;;;10.18;100.00;99661.19;5075936;28;20224;-34
2020/12/15 09:46:07;;;;;;;9.27;7.37;;;;;;;10.14;100.00;99663.84;5076113;28;20211;-32
2020/12/15 09:48:54;;;;;;;7.97;6.90;;;;;;;9.99;100.00;99670.94;5075368;28;20326;-35
2020/12/15 09:51:41;;;;;;;8.27;6.70;;;;;;;10.10;100.00;99669.94;5076235;28;20214;-32
2020/12/15 09:54:29;;;;;;;7.77;6.97;;;;;;;9.95;100.00;99669.31;5076068;28;20250;-37
2020/12/15 09:57:15;;;;;;;8.20;7.40;;;;;;;10.27;100.00;99675.72;5081073;28;20199;-35
2020/12/15 10:00:05;;;;;;;8.77;7.63;;;;;;;10.22;100.00;99669.75;5095877;28;20203;-36
2020/12/15 10:02:55;;;;;;;8.30;7.50;;;;;;;10.28;100.00;99664.50;5095959;28;20231;-34
2020/12/15 10:05:41;;;;;;;8.70;7.80;;;;;;;9.99;100.00;99667.53;5095348;28;20261;-36
2020/12/15 10:08:26;;;;;;;8.30;7.17;;;;;;;9.97;100.00;99661.53;5095853;28;20199;-36
2020/12/15 10:11:16;;;;;;;7.67;6.73;;;;;;;10.01;100.00;99664.03;5095893;28;20211;-34
2020/12/15 10:14:02;;;;;;;9.57;7.20;;;;;;;9.93;100.00;99675.38;5095442;28;20207;-33
2020/12/15 10:16:52;;;;;;;7.87;7.17;;;;;;;9.84;100.00;99673.78;5095720;28;20249;-34
2020/12/15 10:19:43;;;;;;;8.30;7.50;;;;;;;10.07;100.00;99673.41;5096089;28;20200;-33
2020/12/15 10:22:29;;;;;;;7.93;7.13;;;;;;;9.97;100.00;99667.56;5095678;28;20219;-34
2020/12/15 10:25:19;;;;;;;9.73;7.37;;;;;;;9.86;100.00;99672.03;5095356;28;20223;-35
2020/12/15 10:28:09;;;;;;;9.43;7.80;;;;;;;10.17;100.00;99662.06;5082835;28;20208;-33
2020/12/15 10:30:56;;;;;;;7.47;6.77;;;;;;;9.97;100.00;99672.72;5075416;28;20551;-39
2020/12/15 10:33:42;;;;;;;8.67;7.47;;;;;;;10.27;100.00;99670.53;5077261;28;20200;-37
2020/12/15 10:36:28;;;;;;;9.07;7.17;;;;;;;9.88;100.00;99667.69;5078337;28;20200;-37
2020/12/15 10:39:17;;;;;;;8.53;7.63;;;;;;;10.09;100.00;99674.25;5077959;28;20200;-37
2020/12/15 10:42:07;;;;;;;9.17;8.27;;;;;;;10.19;100.00;99675.81;5063501;28;20209;-36
2020/12/15 10:44:53;;;;;;;10.37;9.30;;;;;;;10.25;100.00;99672.28;5059067;28;20606;-37
2020/12/15 10:47:40;;;;;;;7.23;6.57;;;;;;;10.25;100.00;99672.28;5059643;28;20201;-37
2020/12/15 10:50:26;;;;;;;7.43;6.73;;;;;;;9.95;100.00;99666.72;5059210;28;20200;-34
2020/12/15 10:53:12;;;;;;;7.50;6.80;;;;;;;10.20;100.00;99663.75;5059341;28;20264;-33
2020/12/15 10:55:57;;;;;;;7.10;6.50;;;;;;;10.09;100.00;99663.06;5059047;28;20529;-36
2020/12/15 10:58:46;;;;;;;6.00;5.43;;;;;;;10.05;100.00;99664.84;5059374;28;20428;-36
2020/12/15 11:01:31;;;;;;;6.23;5.73;;;;;;;9.94;100.00;99664.16;5058950;28;20209;-33
2020/12/15 11:04:19;;;;;;;6.93;6.23;;;;;;;10.20;100.00;99666.34;5058486;28;20577;-37
2020/12/15 11:07:11;;;;;;;6.10;5.23;;;;;;;10.15;100.00;99660.38;5058040;28;20201;-33
2020/12/15 11:09:56;;;;;;;7.10;6.23;;;;;;;10.56;100.00;99667.44;5058723;28;20209;-35
2020/12/15 11:12:42;;;;;;;9.53;6.60;;;;;;;10.40;100.00;99663.41;5058776;28;20202;-33
2020/12/15 11:15:29;;;;;;;6.43;5.20;;;;;;;10.25;100.00;99664.53;5058844;28;20200;-38
2020/12/15 11:18:15;;;;;;;5.43;5.03;;;;;;;10.31;100.00;99667.03;5058162;28;20259;-36
2020/12/15 11:21:03;;;;;;;6.10;5.27;;;;;;;10.30;100.00;99665.31;5058481;28;20197;-37
2020/12/15 11:23:52;;;;;;;5.17;4.77;;;;;;;10.78;100.00;99666.16;5058354;28;20327;-36
2020/12/15 11:26:37;;;;;;;5.90;5.40;;;;;;;10.33;100.00;99668.72;5058048;28;20205;-34
2020/12/15 11:29:25;;;;;;;5.20;4.73;;;;;;;10.48;100.00;99672.75;5057808;28;20489;-37
2020/12/15 11:32:19;;;;;;;5.90;5.40;;;;;;;10.59;100.00;99678.56;5052532;28;20197;-36
2020/12/15 11:35:10;;;;;;;6.93;5.20;;;;;;;10.55;100.00;99679.53;5058629;28;20205;-36
2020/12/15 11:38:00;;;;;;;4.60;4.20;;;;;;;10.50;100.00;99668.41;5061335;28;20345;-35
2020/12/15 11:40:50;;;;;;;4.70;4.40;;;;;;;10.65;100.00;99673.28;5077537;28;20609;-35
2020/12/15 11:43:35;;;;;;;5.30;4.73;;;;;;;10.51;100.00;99674.44;5086605;28;20215;-36
2020/12/15 11:46:24;;;;;;;5.63;4.90;;;;;;;10.38;100.00;99676.41;5098516;28;20204;-35
2020/12/15 11:49:12;;;;;;;4.83;4.43;;;;;;;10.30;100.00;99676.50;5086099;28;20346;-38
2020/12/15 11:52:01;;;;;;;6.23;5.27;;;;;;;10.32;100.00;99673.91;5078207;28;20498;-37
2020/12/15 11:54:52;;;;;;;5.47;4.97;;;;;;;10.57;100.00;99669.16;5094148;28;20195;-36
2020/12/15 11:57:38;;;;;;;4.83;4.43;;;;;;;10.57;100.00;99682.94;5098547;28;20219;-32
2020/12/15 12:00:24;;;;;;;4.83;4.43;;;;;;;10.19;100.00;99672.41;5097979;28;20203;-37
2020/12/15 12:03:10;;;;;;;4.53;4.13;;;;;;;10.14;100.00;99687.97;5081626;28;20499;-36
2020/12/15 12:05:56;;;;;;;4.73;4.33;;;;;;;10.30;100.00;99684.28;5077998;28;20207;-38
2020/12/15 12:08:41;;;;;;;6.60;4.97;;;;;;;10.41;100.00;99683.22;5082564;28;20213;-35
2020/12/15 12:11:29;;;;;;;6.10;4.43;;;;;;;10.19;100.00;99683.56;5078110;28;20200;-38
2020/12/15 12:14:15;;;;;;;5.43;5.03;;;;;;;10.22;100.00;99687.84;5097786;28;20226;-37
2020/12/15 12:17:03;;;;;;;5.73;4.80;;;;;;;10.15;100.00;99691.41;5087146;28;20343;-33
2020/12/15 12:19:49;;;;;;;5.43;4.70;;;;;;;10.56;100.00;99682.97;5078262;28;20195;-36
2020/12/15 12:22:37;;;;;;;6.07;5.03;;;;;;;10.35;100.00;99679.88;5096322;28;20203;-36
2020/12/15 12:25:26;;;;;;;6.80;6.10;;;;;;;10.43;100.00;99678.88;5097495;28;20207;-38
2020/12/15 12:28:15;;;;;;;5.57;5.03;;;;;;;10.63;100.00;99679.38;5097963;28;20195;-35
2020/12/15 12:31:04;;;;;;;6.07;5.57;;;;;;;10.35;100.00;99686.78;5077903;28;20480;-36
2020/12/15 12:33:50;;;;;;;6.23;5.27;;;;;;;10.24;100.00;99686.94;5090375;28;20195;-36
2020/12/15 12:36:35;;;;;;;7.20;6.43;;;;;;;10.06;100.00;99683.78;5077261;28;20204;-36
2020/12/15 12:39:22;;;;;;;5.60;5.13;;;;;;;10.38;100.00;99693.63;5096141;28;20321;-34
2020/12/15 12:42:10;;;;;;;8.17;7.37;;;;;;;10.08;100.00;99688.06;5096193;28;20501;-35
2020/12/15 12:44:57;;;;;;;7.30;6.60;;;;;;;9.96;100.00;99698.59;5077439;28;20235;-35
2020/12/15 12:47:59;;;;;;;6.80;6.00;;;;;;;10.15;100.00;99697.41;5083506;28;20199;-38
2020/12/15 12:50:54;;;;;;;7.23;6.63;;;;;;;9.97;100.00;99700.31;5092126;28;20188;-39
2020/12/15 12:53:49;;;;;;;7.70;7.07;;;;;;;10.00;100.00;99695.06;5085997;28;20249;-36
2020/12/15 12:56:37;;;;;;;8.00;7.30;;;;;;;10.21;100.00;99699.06;5096900;28;20203;-35
2020/12/15 12:59:24;;;;;;;8.03;7.33;;;;;;;10.12;100.00;99700.06;5096212;28;20301;-36
2020/12/15 13:02:13;;;;;;;10.80;6.60;;;;;;;10.11;100.00;99707.81;5096846;28;20225;-37
2020/12/15 13:05:04;;;;;;;7.33;6.63;;;;;;;10.38;100.00;99704.84;5096902;28;20223;-38